Latest Weather Observations for Viewbank

IDV60801

Issued at 1:05 pm EST Saturday 23 August 2014 (issued every 30 minutes, with the page automatically refreshed every 10 minutes)

About weather observations | Map of weather stations | Latest weather observations for VIC | Other Formats
Station Details ID: 086068 Name: VIEWBANK Lat: -37.74 Lon: 145.10 Height: 66.1 m
Data from the previous 72 hours. | See also: Recent months at Viewbank
Date/Time
EST
Temp
°C
App
Temp
°C
Dew
Point
Rel
Hum
%
Delta-T
°C
Wind Press
QNH
hPa
Press
MSL
hPa
Rain
since 9 am
mm
Dir
 
Spd
km/h
Gust
km/h
Spd
kts
Gust
kts
23/01:00pm 18.3 15.1 8.3 52 5.1 NE 15 26 8 14 1026.0 1026.1 0.0
23/12:30pm 18.1 15.5 7.8 51 5.2 NNE 11 24 6 13 1026.6 1026.7 0.0
23/12:00pm 18.3 15.9 8.8 54 4.9 NE 11 20 6 11 1027.1 1027.2 0.0
23/11:30am 17.8 15.1 8.9 56 4.6 NE 13 28 7 15 1027.6 1027.7 0.0
23/11:00am 17.5 15.7 9.4 59 4.2 NNE 9 17 5 9 1028.3 1028.3 0.0
23/10:30am 16.5 14.1 8.5 59 4.1 NE 11 20 6 11 1028.5 1028.5 0.0
23/10:00am 15.1 12.6 8.1 63 3.5 NE 11 19 6 10 1028.7 1028.7 0.0
23/09:30am 12.4 11.0 8.9 79 1.8 NE 6 7 3 4 1028.9 1028.9 0.0
23/09:00am 9.6 7.9 8.4 92 0.6 ENE 7 9 4 5 1029.1 1029.1 0.0
23/08:30am 7.7 6.0 7.4 98 0.1 ENE 6 9 3 5 1029.3 1029.3 0.0
23/08:00am 6.1 3.9 6.0 99 0.0 ENE 7 9 4 5 1029.1 1029.1 0.0
23/07:30am 4.9 2.0 4.8 99 0.0 ENE 9 11 5 6 1028.8 1028.8 0.0
23/07:00am 4.6 2.1 4.5 99 0.0 ENE 7 9 4 5 1028.6 1028.6 0.0
23/06:30am 3.9 0.8 3.8 99 0.0 NE 9 9 5 5 1028.2 1028.2 0.0
23/06:00am 4.8 2.3 4.7 99 0.0 ENE 7 11 4 6 1028.2 1028.2 0.0
23/05:30am 5.4 3.6 5.3 99 0.0 NE 4 7 2 4 1027.8 1027.9 0.0
23/05:00am 5.9 3.2 5.8 99 0.0 ENE 9 13 5 7 1027.6 1027.7 0.0
23/04:30am 5.7 2.6 5.6 99 0.0 ENE 11 13 6 7 1027.4 1027.5 0.0
23/04:00am 5.4 3.2 5.3 99 0.0 ENE 6 9 3 5 1027.5 1027.6 0.0
23/03:30am 5.6 3.4 5.5 99 0.0 NE 6 9 3 5 1027.5 1027.6 0.0
23/03:00am 5.7 4.3 5.6 99 0.0 NE 2 6 1 3 1027.7 1027.8 0.0
23/02:30am 5.9 4.9 5.8 99 0.0 CALM 0 0 0 0 1028.1 1028.1 0.0
23/02:00am 6.0 5.1 5.9 99 0.0 CALM 0 0 0 0 1028.3 1028.3 0.0
23/01:30am 6.3 4.9 5.7 96 0.3 NE 2 6 1 3 1028.3 1028.3 0.0
23/01:00am 6.7 5.8 6.0 95 0.3 CALM 0 0 0 0 1028.3 1028.3 0.0
23/12:30am 7.1 5.4 6.0 93 0.5 NE 4 6 2 3 1028.3 1028.3 0.0
23/12:00am 7.4 5.8 6.2 92 0.5 NNE 4 7 2 4 1028.3 1028.3 0.0
 
Date/Time
EST
Temp
°C
App
Temp
°C
Dew
Point
Rel
Hum
%
Delta-T
°C
Wind Press
QNH
hPa
Press
MSL
hPa
Rain
since 9 am
mm
Dir
 
Spd
km/h
Gust
km/h
Spd
kts
Gust
kts
22/11:30pm 7.6 6.7 6.2 91 0.6 CALM 0 0 0 0 1028.5 1028.5 0.0
22/11:00pm 8.6 7.7 6.2 85 1.1 CALM 0 4 0 2 1028.5 1028.5 0.0
22/10:30pm 8.5 7.2 6.1 85 1.1 NE 2 6 1 3 1028.6 1028.6 0.0
22/10:00pm 9.2 7.1 5.9 80 1.5 NNE 6 9 3 5 1028.7 1028.7 0.0
22/09:30pm 9.6 7.1 6.5 81 1.4 ENE 9 52 5 28 1028.9 1028.9 0.0
22/09:00pm 10.3 8.2 6.5 77 1.8 ENE 7 9 4 5 1029.0 1029.0 0.0
22/08:30pm 12.5 10.4 5.7 63 3.2 NNE 6 9 3 5 1028.8 1028.8 0.0
22/08:00pm 13.2 12.1 5.1 58 3.7 CALM 0 0 0 0 1028.7 1028.7 0.0
22/07:30pm 12.9 10.7 6.0 63 3.3 ENE 7 11 4 6 1028.6 1028.6 0.0
22/07:00pm 14.8 12.3 4.8 51 4.7 NNW 7 9 4 5 1028.4 1028.4 0.0
22/06:30pm 15.2 13.6 4.6 49 5.0 NE 2 6 1 3 1028.1 1028.1 0.0
22/06:00pm 16.1 13.9 5.1 48 5.2 ENE 6 9 3 5 1027.8 1027.9 0.0
22/05:30pm 17.2 14.8 4.2 42 6.1 N 6 9 3 5 1027.7 1027.8 0.0
22/05:00pm 18.1 16.5 4.3 40 6.5 N 2 7 1 4 1027.7 1027.8 0.0
22/04:30pm 18.2 15.6 4.4 40 6.6 NNE 7 11 4 6 1027.5 1027.6 0.0
22/04:00pm 18.4 15.7 3.8 38 6.8 N 7 17 4 9 1027.4 1027.5 0.0
22/03:30pm 18.7 16.0 5.5 42 6.5 N 9 13 5 7 1027.6 1027.7 0.0
22/03:00pm 18.5 15.2 4.7 40 6.6 N 11 19 6 10 1027.8 1027.9 0.0
22/02:30pm 18.5 15.3 5.0 41 6.5 N 11 15 6 8 1028.2 1028.2 0.0
22/02:00pm 18.8 15.6 5.3 41 6.5 N 11 20 6 11 1028.4 1028.4 0.0
22/01:30pm 17.7 15.4 4.6 42 6.3 NE 6 9 3 5 1028.8 1028.8 0.0
22/01:00pm 19.0 17.0 7.1 46 6.0 N 7 15 4 8 1029.1 1029.1 0.0
22/12:30pm 18.3 15.4 6.5 46 5.9 NNW 11 17 6 9 1029.5 1029.6 0.0
22/12:00pm 18.3 16.1 7.7 50 5.4 N 9 17 5 9 1030.1 1030.2 0.0
22/11:30am 17.4 15.4 6.3 48 5.5 ENE 6 17 3 9 1030.6 1030.7 0.0
22/11:00am 16.6 15.3 9.1 61 3.9 NE 6 9 3 5 1030.9 1031.0 0.0
22/10:30am 13.8 12.3 8.4 70 2.7 ENE 6 9 3 5 1031.2 1031.3 0.0
22/10:00am 11.4 10.4 8.8 84 1.3 NE 4 7 2 4 1031.3 1031.4 0.0
22/09:30am 9.9 8.3 8.7 92 0.6 ENE 7 9 4 5 1031.5 1031.6 0.0
22/09:00am 8.4 7.2 8.1 98 0.1 ENE 4 9 2 5 1031.5 1031.6 0.0
22/08:30am 7.3 5.5 7.2 99 0.0 ENE 6 9 3 5 1031.5 1031.6 0.0
22/08:00am 6.5 5.3 6.4 99 0.0 NE 2 6 1 3 1031.3 1031.4 0.0
22/07:30am 4.8 3.6 4.8 100 0.0 CALM 0 4 0 2 1031.0 1031.1 0.0
22/07:00am 4.2 2.5 4.2 100 0.0 NE 2 6 1 3 1030.6 1030.7 0.0
22/06:30am 3.7 2.3 3.7 100 0.0 CALM 0 6 0 3 1030.4 1030.5 0.0
22/06:00am 4.5 3.3 4.5 100 0.0 CALM 0 6 0 3 1030.3 1030.4 0.0
22/05:30am 4.7 3.5 4.7 100 0.0 CALM 0 0 0 0 1030.1 1030.2 0.0
22/05:00am 4.1 2.8 4.1 100 0.0 CALM 0 0 0 0 1029.9 1030.0 0.0
22/04:30am 5.0 3.9 5.0 100 0.0 CALM 0 6 0 3 1029.7 1029.8 0.0
22/04:00am 5.0 3.9 5.0 100 0.0 CALM 0 0 0 0 1029.6 1029.7 0.0
22/03:30am 5.1 4.0 5.0 99 0.0 CALM 0 4 0 2 1029.6 1029.7 0.0
22/03:00am 5.1 3.6 5.0 99 0.0 NE 2 7 1 4 1029.5 1029.6 0.0
22/02:30am 5.7 4.7 5.6 99 0.0 CALM 0 6 0 3 1029.7 1029.8 0.0
22/02:00am 5.7 4.3 5.6 99 0.0 NNE 2 6 1 3 1029.7 1029.8 0.0
22/01:30am 6.3 4.3 6.2 99 0.0 NNE 6 7 3 4 1029.7 1029.8 0.0
22/01:00am 6.5 4.5 6.4 99 0.0 NE 6 7 3 4 1029.7 1029.8 0.0
22/12:30am 7.0 5.9 6.9 99 0.0 NNE 2 6 1 3 1029.7 1029.8 0.0
22/12:00am 7.1 5.6 7.0 99 0.0 ENE 4 7 2 4 1029.7 1029.8 0.0
 
Date/Time
EST
Temp
°C
App
Temp
°C
Dew
Point
Rel
Hum
%
Delta-T
°C
Wind Press
QNH
hPa
Press
MSL
hPa
Rain
since 9 am
mm
Dir
 
Spd
km/h
Gust
km/h
Spd
kts
Gust
kts
21/11:30pm 7.8 6.5 7.7 99 0.0 ENE 4 9 2 5 1029.7 1029.8 0.0
21/11:00pm 8.0 7.1 7.9 99 0.0 ENE 2 6 1 3 1029.7 1029.8 0.0
21/10:30pm 8.3 7.1 8.2 99 0.0 NNE 4 9 2 5 1029.7 1029.8 0.0
21/10:00pm 8.8 7.4 7.4 91 0.7 N 4 6 2 3 1029.6 1029.7 0.0
21/09:30pm 9.6 9.1 7.9 89 0.8 CALM 0 2 0 1 1029.5 1029.6 0.0
21/09:00pm 10.4 8.7 7.5 82 1.4 N 6 7 3 4 1029.4 1029.5 0.0
21/08:30pm 11.2 9.5 7.7 79 1.7 N 6 7 3 4 1029.1 1029.1 0.0
21/08:00pm 11.5 10.9 7.4 76 2.0 CALM 0 6 0 3 1028.9 1028.9 0.0
21/07:30pm 12.4 11.7 7.1 70 2.6 CALM 0 4 0 2 1028.7 1028.7 0.0
21/07:00pm 13.3 12.7 7.3 67 2.9 CALM 0 0 0 0 1028.5 1028.5 0.0
21/06:30pm 13.7 12.8 7.7 67 3.0 NNE 2 7 1 4 1028.1 1028.1 0.0
21/06:00pm 14.1 12.4 7.6 65 3.2 ENE 6 7 3 4 1027.8 1027.9 0.0
21/05:30pm 14.9 12.7 7.7 62 3.6 ENE 9 11 5 6 1027.5 1027.6 0.0
21/05:00pm 16.0 13.8 7.7 58 4.1 ENE 9 15 5 8 1027.2 1027.3 0.0
21/04:30pm 15.8 14.2 7.8 59 4.0 NE 6 13 3 7 1027.0 1027.1 0.0
21/04:00pm 16.2 14.3 7.4 56 4.4 NNE 7 13 4 7 1026.9 1027.0 0.0
21/03:30pm 16.0 13.6 7.0 55 4.5 NE 9 15 5 8 1026.9 1027.0 0.0
21/03:00pm 16.4 14.1 7.6 56 4.4 NE 9 17 5 9 1026.9 1027.0 0.0
21/02:30pm 15.8 13.5 7.3 57 4.2 NNE 9 17 5 9 1026.9 1027.0 0.0
21/02:00pm 16.1 13.3 7.1 55 4.4 NNE 11 22 6 12 1026.9 1027.0 0.0
21/01:30pm 16.0 13.5 8.0 59 4.0 NNE 11 17 6 9 1027.1 1027.2 0.0
21/01:00pm 15.3 13.3 7.3 59 3.9 NNE 7 19 4 10 1027.5 1027.6 0.0
21/12:30pm 15.0 14.2 9.6 70 2.8 SE 4 7 2 4 1027.9 1028.0 0.0
21/12:00pm 15.5 14.0 8.3 62 3.6 ENE 6 11 3 6 1028.4 1028.4 0.0
21/11:30am 13.9 13.0 9.1 73 2.4 SSE 4 13 2 7 1028.9 1028.9 0.0
21/11:00am 12.8 12.1 8.7 76 2.0 NNE 2 7 1 4 1029.2 1029.2 0.0
21/10:30am 11.4 10.3 8.6 83 1.4 ESE 4 7 2 4 1029.5 1029.6 0.0
21/10:00am 10.0 8.9 8.4 90 0.8 ENE 4 7 2 4 1029.6 1029.7 0.0
21/09:30am 8.8 7.8 8.7 99 0.0 E 4 7 2 4 1029.6 1029.7 0.0
21/09:00am 7.9 6.3 7.8 99 0.0 ENE 6 9 3 5 1029.7 1029.8 0.0
21/08:30am 6.7 5.9 6.7 100 0.0 CALM 0 6 0 3 1029.5 1029.6 0.0
21/08:00am 5.8 3.7 5.8 100 0.0 ENE 6 7 3 4 1029.2 1029.2 0.0
21/07:30am 5.4 4.0 5.4 100 0.0 NE 2 7 1 4 1028.8 1028.8 0.0
21/07:00am 5.1 2.6 5.0 99 0.0 ENE 7 11 4 6 1028.4 1028.4 0.0
21/06:30am 5.9 3.8 5.8 99 0.0 N 6 7 3 4 1028.3 1028.3 0.0
21/06:00am 6.2 5.3 6.1 99 0.0 CALM 0 6 0 3 1028.2 1028.2 0.0
21/05:30am 6.3 4.7 6.2 99 0.0 NNE 4 6 2 3 1028.1 1028.1 0.0
21/05:00am 6.3 4.7 6.2 99 0.0 N 4 6 2 3 1027.8 1027.9 0.0
21/04:30am 6.2 4.9 6.1 99 0.0 N 2 9 1 5 1027.8 1027.9 0.0
21/04:00am 6.5 4.9 6.4 99 0.0 W 4 7 2 4 1027.6 1027.7 0.0
21/03:30am 6.3 5.4 6.2 99 0.0 CALM 0 0 0 0 1027.5 1027.6 0.0
21/03:00am 7.6 6.8 6.5 93 0.5 CALM 0 0 0 0 1027.4 1027.5 0.0
21/02:30am 8.1 7.3 6.7 91 0.6 CALM 0 0 0 0 1027.5 1027.6 0.0
21/02:00am 8.3 6.3 6.1 86 1.0 S 6 7 3 4 1027.5 1027.6 0.0
21/01:30am 9.1 7.1 6.2 82 1.3 SSW 6 7 3 4 1027.4 1027.5 0.0
21/01:00am 9.5 7.3 6.2 80 1.5 S 7 9 4 5 1027.5 1027.6 0.0
21/12:30am 9.9 7.9 6.1 77 1.8 SSW 6 9 3 5 1027.6 1027.7 0.0
21/12:00am 9.9 7.8 5.9 76 1.8 SSW 6 9 3 5 1027.6 1027.7 0.0
 
Date/Time
EST
Temp
°C
App
Temp
°C
Dew
Point
Rel
Hum
%
Delta-T
°C
Wind Press
QNH
hPa
Press
MSL
hPa
Rain
since 9 am
mm
Dir
 
Spd
km/h
Gust
km/h
Spd
kts
Gust
kts
20/11:30pm 10.0 7.4 6.0 76 1.9 S 9 13 5 7 1027.7 1027.8 0.0
20/11:00pm 10.1 8.0 5.9 75 1.9 S 6 9 3 5 1027.8 1027.9 0.0
20/10:30pm 10.2 7.5 5.6 73 2.1 S 9 17 5 9 1027.9 1028.0 0.0
20/10:00pm 10.2 8.0 5.4 72 2.2 SSE 6 9 3 5 1028.2 1028.2 0.0
20/09:30pm 10.5 8.3 5.5 71 2.3 SSE 6 13 3 7 1028.3 1028.3 0.0
20/09:00pm 10.6 8.3 5.6 71 2.3 S 7 11 4 6 1028.2 1028.2 0.0
20/08:30pm 10.6 8.5 5.8 72 2.2 S 6 7 3 4 1028.1 1028.1 0.0
20/08:00pm 10.7 8.9 5.5 70 2.4 SE 4 7 2 4 1028.1 1028.1 0.0
20/07:30pm 10.8 7.7 5.6 70 2.4 SSW 11 17 6 9 1027.7 1027.8 0.0
20/07:00pm 10.7 8.3 5.3 69 2.5 SW 7 11 4 6 1027.7 1027.8 0.0
20/06:30pm 11.0 8.1 4.5 64 2.9 SSW 9 17 5 9 1027.7 1027.8 0.0
20/06:00pm 11.0 8.1 4.7 65 2.8 SSW 9 15 5 8 1027.3 1027.4 0.0
20/05:30pm 11.2 7.1 4.4 63 3.1 SSW 15 22 8 12 1026.9 1027.0 0.0
20/05:00pm 11.4 7.8 5.1 65 2.9 SSW 13 19 7 10 1026.7 1026.8 0.0
20/04:30pm 11.5 8.1 5.8 68 2.7 SSW 13 20 7 11 1026.5 1026.6 0.0
20/04:00pm 11.6 8.2 5.9 68 2.6 SSW 13 19 7 10 1026.4 1026.5 0.0
20/03:30pm 12.4 9.2 6.9 69 2.6 SW 13 20 7 11 1026.2 1026.3 0.0
20/03:00pm 12.2 8.5 6.3 67 2.8 SW 15 24 8 13 1026.0 1026.1 0.0
20/02:30pm 12.2 9.1 5.6 64 3.1 SSW 11 17 6 9 1025.9 1026.0 0.0
20/02:00pm 12.3 9.2 5.5 63 3.2 SSW 11 15 6 8 1025.9 1026.0 0.0
20/01:30pm 12.4 9.5 4.9 60 3.5 S 9 13 5 7 1026.0 1026.1 0.0

Other Formats:

Comma delimited format used in spreadsheet applications
http://www.bom.gov.au/fwo/IDV60801/IDV60801.95874.axf

JavaScript Object Notation format (JSON) in row-major order
http://www.bom.gov.au/fwo/IDV60801/IDV60801.95874.json